createdAt,value
2019-03-15T00:02:26.162Z,7.48
2019-03-15T00:04:56.887Z,7.52
2019-03-15T00:07:27.652Z,7.53
2019-03-15T00:09:58.593Z,7.52
2019-03-15T00:12:29.361Z,7.53
2019-03-15T00:15:00.953Z,7.51
2019-03-15T00:17:31.679Z,7.55
2019-03-15T00:20:02.638Z,7.48
2019-03-15T00:22:33.526Z,7.50
2019-03-15T00:25:04.682Z,7.45
2019-03-15T00:27:35.474Z,7.43
2019-03-15T00:30:07.518Z,7.42
2019-03-15T00:32:38.334Z,7.46
2019-03-15T00:35:09.680Z,7.46
2019-03-15T00:37:40.687Z,7.53
2019-03-15T00:40:13.819Z,7.47
2019-03-15T00:42:44.516Z,7.47
2019-03-15T00:45:15.405Z,7.48
2019-03-15T00:47:46.286Z,7.48
2019-03-15T00:50:17.179Z,7.47
2019-03-15T00:52:47.995Z,7.43
2019-03-15T00:55:19.740Z,7.46
2019-03-15T00:57:50.558Z,7.43
2019-03-15T01:00:21.510Z,7.43
2019-03-15T01:02:52.158Z,7.44
2019-03-15T01:05:22.915Z,7.43
2019-03-15T01:07:53.831Z,7.41
2019-03-15T01:10:24.572Z,7.40
2019-03-15T01:12:55.476Z,7.34
2019-03-15T01:15:26.359Z,7.32
2019-03-15T01:17:57.147Z,7.31
2019-03-15T01:20:27.903Z,7.30
2019-03-15T01:22:58.614Z,7.24
2019-03-15T01:25:29.442Z,7.10
2019-03-15T01:28:00.738Z,7.05
2019-03-15T01:30:31.631Z,7.04
2019-03-15T01:33:02.362Z,7.09
2019-03-15T01:35:34.007Z,7.12
2019-03-15T01:38:05.096Z,7.09
2019-03-15T01:40:35.940Z,7.12
2019-03-15T01:43:06.741Z,7.18
2019-03-15T01:45:37.410Z,7.24
2019-03-15T01:48:08.208Z,7.27
2019-03-15T01:50:39.154Z,7.27
2019-03-15T01:53:10.018Z,7.23
2019-03-15T01:55:40.851Z,7.16
2019-03-15T01:58:11.735Z,7.17
2019-03-15T02:00:42.491Z,7.23
2019-03-15T02:03:13.637Z,7.28
2019-03-15T02:05:44.728Z,7.31
2019-03-15T02:08:15.538Z,7.30
2019-03-15T02:10:46.422Z,7.32
2019-03-15T02:13:17.180Z,7.35
2019-03-15T02:15:47.855Z,7.35
2019-03-15T02:18:18.900Z,7.29
2019-03-15T02:20:49.785Z,7.24
2019-03-15T02:23:20.659Z,7.22
2019-03-15T02:25:51.541Z,7.18
2019-03-15T02:28:22.302Z,7.12
2019-03-15T02:30:53.482Z,7.16
2019-03-15T02:33:24.318Z,7.20
2019-03-15T02:35:55.057Z,7.23
2019-03-15T02:38:27.074Z,7.23
2019-03-15T02:40:58.064Z,7.31
2019-03-15T02:43:28.858Z,7.34
2019-03-15T02:45:59.634Z,7.36
2019-03-15T02:48:30.458Z,7.38
2019-03-15T02:51:01.332Z,7.37
2019-03-15T02:53:32.130Z,7.38
2019-03-15T02:56:03.068Z,7.37
2019-03-15T02:58:34.014Z,7.36
2019-03-15T03:01:04.912Z,7.34
2019-03-15T03:03:35.979Z,7.31
2019-03-15T03:06:06.718Z,7.30
2019-03-15T03:08:37.595Z,7.33
2019-03-15T03:11:08.710Z,7.36
2019-03-15T03:13:39.517Z,7.34
2019-03-15T03:16:10.387Z,7.37
2019-03-15T03:18:41.173Z,7.45
2019-03-15T03:21:12.063Z,7.53
2019-03-15T03:23:42.987Z,7.55
2019-03-15T03:26:13.829Z,7.63
2019-03-15T03:28:44.717Z,7.63
2019-03-15T03:31:16.233Z,7.65
2019-03-15T03:33:48.249Z,7.69
2019-03-15T03:36:19.061Z,7.74
2019-03-15T03:38:49.745Z,7.79
2019-03-15T03:41:20.475Z,7.85
2019-03-15T03:43:51.722Z,7.87
2019-03-15T03:46:22.352Z,7.87
2019-03-15T03:48:53.258Z,7.90
2019-03-15T03:51:24.079Z,7.95
2019-03-15T03:53:54.758Z,7.97
2019-03-15T03:56:25.663Z,7.95
2019-03-15T03:58:56.744Z,7.98
2019-03-15T04:01:27.552Z,7.97
2019-03-15T04:03:58.363Z,8.01
2019-03-15T04:06:29.152Z,7.99
2019-03-15T04:09:00.146Z,7.96
2019-03-15T04:11:31.128Z,7.96
2019-03-15T04:14:02.223Z,7.97
2019-03-15T04:16:34.016Z,7.97
2019-03-15T04:19:04.910Z,7.97
2019-03-15T04:21:35.698Z,7.96
2019-03-15T04:24:06.650Z,7.90
2019-03-15T04:26:37.542Z,7.93
2019-03-15T04:29:08.420Z,8.04
2019-03-15T04:31:39.194Z,8.08
2019-03-15T04:34:09.982Z,8.10
2019-03-15T04:36:41.362Z,8.13
2019-03-15T04:39:13.951Z,8.15
2019-03-15T04:41:44.654Z,8.34
2019-03-15T04:44:15.449Z,8.24
2019-03-15T04:46:46.418Z,8.30
2019-03-15T04:49:17.150Z,8.34
2019-03-15T04:51:48.226Z,8.41
2019-03-15T04:54:18.925Z,8.35
2019-03-15T04:56:49.763Z,8.34
2019-03-15T04:59:23.783Z,8.31
2019-03-15T05:01:52.839Z,8.37
2019-03-15T05:04:23.678Z,8.33
2019-03-15T05:06:54.450Z,8.33
2019-03-15T05:09:25.366Z,8.38
2019-03-15T05:11:56.082Z,8.33
2019-03-15T05:14:26.852Z,8.32
2019-03-15T05:16:57.689Z,8.34
2019-03-15T05:19:28.554Z,8.38
2019-03-15T05:21:59.393Z,8.37
2019-03-15T05:24:30.096Z,8.35
2019-03-15T05:27:01.077Z,8.40
2019-03-15T05:29:32.754Z,8.43
2019-03-15T05:32:03.818Z,8.40
2019-03-15T05:34:34.525Z,8.47
2019-03-15T05:37:05.306Z,8.55
2019-03-15T05:39:36.236Z,8.51
2019-03-15T05:42:08.390Z,8.52
2019-03-15T05:44:39.054Z,8.52
2019-03-15T05:47:09.704Z,8.55
2019-03-15T05:49:40.497Z,8.53
2019-03-15T05:52:11.578Z,8.49
2019-03-15T05:54:42.349Z,8.45
2019-03-15T05:57:13.121Z,8.47
2019-03-15T05:59:43.924Z,8.45
2019-03-15T06:02:14.554Z,8.47
2019-03-15T06:04:45.653Z,8.51
2019-03-15T06:07:16.558Z,8.48
2019-03-15T06:09:47.431Z,8.47
2019-03-15T06:12:19.299Z,8.51
2019-03-15T06:14:50.194Z,8.48
2019-03-15T06:17:20.897Z,8.64
2019-03-15T06:19:51.683Z,8.56
2019-03-15T06:22:22.358Z,8.59
2019-03-15T06:24:53.139Z,8.63
2019-03-15T06:27:23.863Z,8.61
2019-03-15T06:29:54.534Z,8.61
2019-03-15T06:32:25.381Z,8.60
2019-03-15T06:34:56.264Z,8.59
2019-03-15T06:37:27.102Z,8.62
2019-03-15T06:39:57.853Z,8.61
2019-03-15T06:42:28.770Z,8.63
2019-03-15T06:44:59.391Z,8.62
2019-03-15T06:47:30.371Z,8.61
2019-03-15T06:50:01.285Z,8.59
2019-03-15T06:52:32.058Z,8.61
2019-03-15T06:55:05.309Z,8.63
2019-03-15T06:57:35.470Z,8.61
2019-03-15T07:00:06.427Z,8.71
2019-03-15T07:02:37.171Z,8.67
2019-03-15T07:05:11.678Z,8.67
2019-03-15T07:07:40.926Z,8.64
2019-03-15T07:10:12.181Z,8.73
2019-03-15T07:12:43.074Z,8.75
2019-03-15T07:15:14.166Z,8.88
2019-03-15T07:17:44.992Z,8.79
2019-03-15T07:20:17.057Z,8.80
2019-03-15T07:22:47.856Z,8.79
2019-03-15T07:25:18.529Z,8.88
2019-03-15T07:27:49.370Z,8.88
2019-03-15T07:30:20.200Z,8.92
2019-03-15T07:32:50.970Z,9.00
2019-03-15T07:35:21.738Z,9.06
2019-03-15T07:37:52.404Z,9.09
2019-03-15T07:40:23.135Z,9.21
2019-03-15T07:42:53.879Z,9.25
2019-03-15T07:45:25.007Z,9.34
2019-03-15T07:47:55.712Z,9.42
2019-03-15T07:50:26.414Z,9.46
2019-03-15T07:52:57.110Z,9.50
2019-03-15T07:55:27.779Z,9.48
2019-03-15T07:57:58.753Z,9.55
2019-03-15T08:00:29.620Z,9.58
2019-03-15T08:03:00.245Z,9.60
2019-03-15T08:05:31.089Z,9.68
2019-03-15T08:08:01.882Z,9.74
2019-03-15T08:10:32.556Z,9.80
2019-03-15T08:13:03.364Z,9.88
2019-03-15T08:15:34.158Z,9.94
2019-03-15T08:18:05.062Z,9.92
2019-03-15T08:20:36.223Z,10.00
2019-03-15T08:23:08.577Z,10.04
2019-03-15T08:25:39.611Z,10.13
2019-03-15T08:28:10.326Z,10.17
2019-03-15T08:30:41.009Z,10.13
2019-03-15T08:33:12.099Z,10.25
2019-03-15T08:35:42.926Z,10.29
2019-03-15T08:38:14.753Z,10.30
2019-03-15T08:40:45.424Z,10.35
2019-03-15T08:43:16.257Z,10.39
2019-03-15T08:45:47.127Z,10.43
2019-03-15T08:48:17.654Z,10.41
2019-03-15T08:50:48.435Z,10.44
2019-03-15T08:53:19.222Z,10.46
2019-03-15T08:55:49.978Z,10.50
2019-03-15T08:58:22.387Z,10.51
2019-03-15T09:00:53.566Z,10.51
2019-03-15T09:03:28.145Z,10.58
2019-03-15T09:05:56.732Z,10.65
2019-03-15T09:08:27.528Z,10.67
2019-03-15T09:10:59.304Z,10.70
2019-03-15T09:13:30.115Z,10.74
2019-03-15T09:16:00.887Z,10.75
2019-03-15T09:18:31.829Z,10.78
2019-03-15T09:21:02.587Z,10.78
2019-03-15T09:23:33.267Z,10.88
2019-03-15T09:26:04.160Z,10.88
2019-03-15T09:28:35.163Z,10.93
2019-03-15T09:31:07.654Z,10.97
2019-03-15T09:33:38.656Z,11.08
2019-03-15T09:36:09.667Z,11.08
2019-03-15T09:38:40.424Z,11.10
2019-03-15T09:41:11.207Z,11.12
2019-03-15T09:43:45.226Z,11.17
2019-03-15T09:46:14.419Z,11.24
2019-03-15T09:48:45.173Z,11.28
2019-03-15T09:51:15.892Z,11.24
2019-03-15T09:53:46.635Z,11.26
2019-03-15T09:56:17.411Z,11.27
2019-03-15T09:58:48.251Z,11.29
2019-03-15T10:01:34.441Z,11.30
2019-03-15T10:03:51.698Z,11.25
2019-03-15T10:06:22.495Z,11.21
2019-03-15T10:08:53.443Z,11.24
2019-03-15T10:11:24.066Z,11.22
2019-03-15T10:13:54.887Z,11.22
2019-03-15T10:16:25.466Z,11.24
2019-03-15T10:18:56.436Z,11.23
2019-03-15T10:21:27.095Z,11.26
2019-03-15T10:23:57.872Z,11.32
2019-03-15T10:26:28.875Z,11.36
2019-03-15T10:28:59.847Z,11.44
2019-03-15T10:31:30.758Z,11.42
2019-03-15T10:34:01.556Z,11.47
2019-03-15T10:36:34.633Z,11.54
2019-03-15T10:39:05.560Z,11.52
2019-03-15T10:41:38.151Z,11.49
2019-03-15T10:44:08.893Z,11.56
2019-03-15T10:46:40.646Z,11.56
2019-03-15T10:49:11.389Z,11.56
2019-03-15T10:51:42.059Z,11.58
2019-03-15T10:54:13.011Z,11.59
2019-03-15T10:56:43.823Z,11.58
2019-03-15T10:59:14.716Z,11.63
2019-03-15T11:01:45.601Z,11.64
2019-03-15T11:04:16.299Z,11.71
2019-03-15T11:06:47.078Z,11.71
2019-03-15T11:09:18.103Z,11.74
2019-03-15T11:11:48.710Z,11.77
2019-03-15T11:14:19.636Z,11.77
2019-03-15T11:16:50.281Z,11.79
2019-03-15T11:19:21.055Z,11.77
2019-03-15T11:21:51.896Z,11.82
2019-03-15T11:24:22.789Z,11.85
2019-03-15T11:26:54.589Z,11.80
2019-03-15T11:29:25.280Z,11.80
2019-03-15T11:31:56.052Z,11.83
2019-03-15T11:34:26.850Z,11.84
2019-03-15T11:36:58.672Z,11.79
2019-03-15T11:39:29.472Z,11.80
2019-03-15T11:42:00.326Z,11.83
2019-03-15T11:44:31.112Z,11.82
2019-03-15T11:47:02.053Z,11.82
2019-03-15T11:49:32.887Z,11.78
2019-03-15T11:52:03.671Z,11.76
2019-03-15T11:54:34.497Z,11.82
2019-03-15T11:57:05.363Z,11.87
2019-03-15T11:59:36.570Z,11.95
2019-03-15T12:02:10.559Z,12.00
2019-03-15T12:04:39.751Z,12.08
2019-03-15T12:07:10.687Z,12.12
2019-03-15T12:09:42.449Z,12.19
2019-03-15T12:12:13.220Z,12.16
2019-03-15T12:14:44.019Z,12.18
2019-03-15T12:17:14.791Z,12.24
2019-03-15T12:19:45.485Z,12.19
2019-03-15T12:22:16.202Z,12.26
2019-03-15T12:24:46.986Z,12.22
2019-03-15T12:27:18.651Z,12.27
2019-03-15T12:29:49.463Z,12.27
2019-03-15T12:32:23.519Z,12.26
2019-03-15T12:34:52.683Z,12.23
2019-03-15T12:37:23.623Z,12.20
2019-03-15T12:39:54.309Z,12.19
2019-03-15T12:42:25.194Z,12.19
2019-03-15T12:44:56.120Z,12.23
2019-03-15T12:47:26.892Z,12.29
2019-03-15T12:49:57.951Z,12.27
2019-03-15T12:52:28.639Z,12.27
2019-03-15T12:54:59.516Z,12.30
2019-03-15T12:57:30.455Z,12.26
2019-03-15T13:00:01.251Z,12.21
2019-03-15T13:02:32.189Z,12.23
2019-03-15T13:05:02.887Z,12.24
2019-03-15T13:07:33.575Z,12.29
2019-03-15T13:10:04.625Z,12.26
2019-03-15T13:12:36.546Z,12.25
2019-03-15T13:15:07.707Z,12.22
2019-03-15T13:17:38.630Z,12.21
2019-03-15T13:20:10.273Z,12.20
2019-03-15T13:22:42.287Z,12.21
2019-03-15T13:25:13.067Z,12.19
2019-03-15T13:27:43.853Z,12.17
2019-03-15T13:30:15.160Z,12.18
2019-03-15T13:32:45.962Z,12.14
2019-03-15T13:35:16.757Z,12.17
2019-03-15T13:37:47.651Z,12.20
2019-03-15T13:40:18.601Z,12.18
2019-03-15T13:42:49.464Z,12.16
2019-03-15T13:45:20.170Z,12.14
2019-03-15T13:47:50.971Z,12.14
2019-03-15T13:50:21.784Z,12.17
2019-03-15T13:52:53.596Z,12.13
2019-03-15T13:55:24.407Z,12.18
2019-03-15T13:57:55.352Z,12.18
2019-03-15T14:00:26.206Z,12.19
2019-03-15T14:02:58.135Z,12.16
2019-03-15T14:05:28.935Z,12.09
2019-03-15T14:08:11.136Z,12.07
2019-03-15T14:10:32.208Z,12.11
2019-03-15T14:13:02.953Z,12.05
2019-03-15T14:15:33.952Z,12.08
2019-03-15T14:18:04.826Z,12.15
2019-03-15T14:20:35.599Z,12.17
2019-03-15T14:23:06.403Z,12.13
2019-03-15T14:25:37.501Z,12.11
2019-03-15T14:28:09.401Z,12.09
2019-03-15T14:30:41.851Z,12.07
2019-03-15T14:33:12.693Z,12.11
2019-03-15T14:35:43.477Z,12.11
2019-03-15T14:38:14.445Z,12.13
2019-03-15T14:40:45.249Z,12.16
2019-03-15T14:43:16.243Z,12.18
2019-03-15T14:45:47.080Z,12.31
2019-03-15T14:48:17.863Z,12.22
2019-03-15T14:50:48.653Z,12.27
2019-03-15T14:53:19.436Z,12.30
2019-03-15T14:55:50.278Z,12.28
2019-03-15T14:58:21.208Z,12.30
2019-03-15T15:00:52.134Z,12.31
2019-03-15T15:03:22.887Z,12.31
2019-03-15T15:05:53.855Z,12.36
2019-03-15T15:08:24.557Z,12.36
2019-03-15T15:10:55.296Z,12.33
2019-03-15T15:13:26.029Z,12.35
2019-03-15T15:15:56.952Z,12.39
2019-03-15T15:18:27.706Z,12.32
2019-03-15T15:20:58.589Z,12.32
2019-03-15T15:23:29.439Z,12.33
2019-03-15T15:26:00.343Z,12.39
2019-03-15T15:28:31.111Z,12.36
2019-03-15T15:31:01.846Z,12.37
2019-03-15T15:33:32.513Z,12.33
2019-03-15T15:36:03.311Z,12.32
2019-03-15T15:38:33.996Z,12.37
2019-03-15T15:41:05.331Z,12.34
2019-03-15T15:43:36.210Z,12.32
2019-03-15T15:46:07.068Z,12.35
2019-03-15T15:48:37.675Z,12.35
2019-03-15T15:51:08.471Z,12.35
2019-03-15T15:53:39.163Z,12.39
2019-03-15T15:56:10.149Z,12.40
2019-03-15T15:58:40.967Z,12.41
2019-03-15T16:01:11.743Z,12.37
2019-03-15T16:03:42.540Z,12.31
2019-03-15T16:06:13.316Z,12.32
2019-03-15T16:08:44.106Z,12.34
2019-03-15T16:11:15.063Z,12.33
2019-03-15T16:13:45.856Z,12.34
2019-03-15T16:16:16.831Z,12.32
2019-03-15T16:18:47.893Z,12.32
2019-03-15T16:21:18.952Z,12.32
2019-03-15T16:23:49.713Z,12.37
2019-03-15T16:26:20.600Z,12.32
2019-03-15T16:28:51.416Z,12.27
2019-03-15T16:31:22.262Z,12.28
2019-03-15T16:33:53.062Z,12.32
2019-03-15T16:36:23.828Z,12.31
2019-03-15T16:38:54.775Z,12.31
2019-03-15T16:41:25.604Z,12.34
2019-03-15T16:43:56.475Z,12.28
2019-03-15T16:46:27.273Z,12.28
2019-03-15T16:48:58.116Z,12.28
2019-03-15T16:51:28.927Z,12.26
2019-03-15T16:53:59.697Z,12.20
2019-03-15T16:56:30.621Z,12.26
2019-03-15T16:59:01.423Z,12.19
2019-03-15T17:01:32.293Z,12.20
2019-03-15T17:04:03.127Z,12.14
2019-03-15T17:06:33.912Z,12.16
2019-03-15T17:09:05.775Z,12.17
2019-03-15T17:11:36.655Z,12.13
2019-03-15T17:14:07.533Z,12.13
2019-03-15T17:16:38.203Z,12.09
2019-03-15T17:19:08.997Z,12.09
2019-03-15T17:21:39.795Z,12.08
2019-03-15T17:24:10.558Z,12.13
2019-03-15T17:26:43.664Z,12.07
2019-03-15T17:29:15.451Z,12.09
2019-03-15T17:31:46.326Z,12.09
2019-03-15T17:34:17.150Z,12.04
2019-03-15T17:36:48.022Z,12.08
2019-03-15T17:39:18.824Z,12.06
2019-03-15T17:41:49.565Z,12.07
2019-03-15T17:44:20.395Z,12.13
2019-03-15T17:46:51.446Z,12.09
2019-03-15T17:49:23.087Z,12.06
2019-03-15T17:51:53.947Z,12.03
2019-03-15T17:54:24.746Z,11.96
2019-03-15T17:56:55.499Z,12.00
2019-03-15T17:59:26.166Z,12.02
2019-03-15T18:01:57.085Z,11.95
2019-03-15T18:04:27.909Z,11.92
2019-03-15T18:06:58.607Z,11.93
2019-03-15T18:09:29.479Z,11.86
2019-03-15T18:12:00.443Z,11.85
2019-03-15T18:14:31.168Z,11.85
2019-03-15T18:17:01.887Z,11.84
2019-03-15T18:19:32.644Z,11.81
2019-03-15T18:22:03.458Z,11.79
2019-03-15T18:24:34.419Z,11.74
2019-03-15T18:27:05.299Z,11.78
2019-03-15T18:29:36.175Z,11.75
2019-03-15T18:32:06.901Z,11.71
2019-03-15T18:34:37.860Z,11.71
2019-03-15T18:37:09.582Z,11.68
2019-03-15T18:39:40.523Z,11.68
2019-03-15T18:42:11.232Z,11.73
2019-03-15T18:44:42.146Z,11.66
2019-03-15T18:47:12.940Z,11.65
2019-03-15T18:49:43.702Z,11.71
2019-03-15T18:52:14.403Z,11.71
2019-03-15T18:54:45.070Z,11.68
2019-03-15T18:57:16.057Z,11.64
2019-03-15T18:59:46.781Z,11.67
2019-03-15T19:02:17.455Z,11.68
2019-03-15T19:04:48.181Z,11.73
2019-03-15T19:07:19.966Z,11.66
2019-03-15T19:09:50.640Z,11.71
2019-03-15T19:12:21.540Z,11.71
2019-03-15T19:14:52.210Z,11.74
2019-03-15T19:17:22.868Z,11.72
2019-03-15T19:19:53.697Z,11.73
2019-03-15T19:22:24.875Z,11.75
2019-03-15T19:24:55.657Z,11.71
2019-03-15T19:27:26.583Z,11.73
2019-03-15T19:29:57.535Z,11.71
2019-03-15T19:32:28.204Z,11.75
2019-03-15T19:34:59.104Z,11.76
2019-03-15T19:37:29.876Z,11.78
2019-03-15T19:40:01.560Z,11.76
2019-03-15T19:42:32.526Z,11.74
2019-03-15T19:45:03.983Z,11.75
2019-03-15T19:47:34.647Z,11.75
2019-03-15T19:50:06.673Z,11.78
2019-03-15T19:52:37.794Z,11.79
2019-03-15T19:55:09.313Z,11.75
2019-03-15T19:57:40.237Z,11.73
2019-03-15T20:00:13.122Z,11.68
2019-03-15T20:02:44.035Z,11.65
2019-03-15T20:05:14.942Z,11.62
2019-03-15T20:07:46.095Z,11.59
2019-03-15T20:10:17.435Z,11.58
2019-03-15T20:12:48.123Z,11.54
2019-03-15T20:15:19.113Z,11.59
2019-03-15T20:17:50.109Z,11.56
2019-03-15T20:20:21.299Z,11.49
2019-03-15T20:22:52.776Z,11.45
2019-03-15T20:25:23.581Z,11.41
2019-03-15T20:27:54.383Z,11.40
2019-03-15T20:30:27.249Z,11.47
2019-03-15T20:32:58.205Z,11.41
2019-03-15T20:35:28.940Z,11.40
2019-03-15T20:37:59.716Z,11.44
2019-03-15T20:40:30.510Z,11.45
2019-03-15T20:43:01.376Z,11.47
2019-03-15T20:45:32.194Z,11.48
2019-03-15T20:48:03.085Z,11.49
2019-03-15T20:50:46.233Z,11.51
2019-03-15T20:53:09.740Z,11.57
2019-03-15T20:55:39.148Z,11.49
2019-03-15T20:58:10.206Z,11.56
2019-03-15T21:00:42.275Z,11.51
2019-03-15T21:03:13.119Z,11.51
2019-03-15T21:05:43.790Z,11.50
2019-03-15T21:08:14.586Z,11.51
2019-03-15T21:10:45.323Z,11.50
2019-03-15T21:13:15.954Z,11.49
2019-03-15T21:15:47.674Z,11.53
2019-03-15T21:18:18.379Z,11.49
2019-03-15T21:20:49.106Z,11.52
2019-03-15T21:23:19.870Z,11.47
2019-03-15T21:25:50.752Z,11.51
2019-03-15T21:28:21.501Z,11.52
2019-03-15T21:30:52.369Z,11.51
2019-03-15T21:33:23.263Z,11.49
2019-03-15T21:35:53.939Z,11.50
2019-03-15T21:38:24.638Z,11.53
2019-03-15T21:40:55.984Z,11.48
2019-03-15T21:43:26.843Z,11.47
2019-03-15T21:45:57.672Z,11.47
2019-03-15T21:48:28.647Z,11.45
2019-03-15T21:50:59.455Z,11.46
2019-03-15T21:53:30.406Z,11.55
2019-03-15T21:56:01.330Z,11.51
2019-03-15T21:58:32.091Z,11.51
2019-03-15T22:01:03.060Z,11.54
2019-03-15T22:03:33.810Z,11.51
2019-03-15T22:06:04.722Z,11.55
2019-03-15T22:08:35.409Z,11.55
2019-03-15T22:11:20.143Z,11.53
2019-03-15T22:13:39.093Z,11.47
2019-03-15T22:16:10.042Z,11.44
2019-03-15T22:18:40.667Z,11.46
2019-03-15T22:21:11.433Z,11.51
2019-03-15T22:23:42.294Z,11.51
2019-03-15T22:26:12.996Z,11.53
2019-03-15T22:28:43.854Z,11.43
2019-03-15T22:31:16.849Z,11.45
2019-03-15T22:33:47.466Z,11.50
2019-03-15T22:36:18.580Z,11.45
2019-03-15T22:38:49.800Z,11.48
2019-03-15T22:41:20.592Z,11.44
2019-03-15T22:43:51.451Z,11.45
2019-03-15T22:46:22.249Z,11.45
2019-03-15T22:48:52.986Z,11.51
2019-03-15T22:51:23.910Z,11.44
2019-03-15T22:53:55.659Z,11.45
2019-03-15T22:56:26.691Z,11.46
2019-03-15T22:58:57.427Z,11.43
2019-03-15T23:01:30.498Z,11.41
2019-03-15T23:04:00.967Z,11.39
2019-03-15T23:06:31.743Z,11.41
2019-03-15T23:09:02.478Z,11.40
2019-03-15T23:11:34.643Z,11.34
2019-03-15T23:14:06.523Z,11.29
2019-03-15T23:16:37.337Z,11.27
2019-03-15T23:19:08.056Z,11.25
2019-03-15T23:21:38.674Z,11.20
2019-03-15T23:24:09.520Z,11.20
2019-03-15T23:26:40.280Z,11.18
2019-03-15T23:29:12.669Z,11.25
2019-03-15T23:31:44.174Z,11.17
2019-03-15T23:34:16.135Z,11.12
2019-03-15T23:36:46.879Z,11.10
2019-03-15T23:39:17.606Z,11.10
2019-03-15T23:41:48.363Z,11.08
2019-03-15T23:44:19.203Z,11.08
2019-03-15T23:46:49.982Z,11.10
2019-03-15T23:49:20.787Z,11.07
2019-03-15T23:51:51.642Z,11.08
2019-03-15T23:54:22.403Z,11.07
2019-03-15T23:56:53.184Z,11.05
2019-03-15T23:59:23.975Z,11.06
